Overview Statistics Trail Chart Weather Telemetry Raw packets
 

This is the latest recevied weather packets stored in our database for station/object 9W2EXL-13. If no packets are shown the sender has not sent any weather packets the latest 10 day(s).

<< 13 14 15 16 17 18 >>
Time Temp. Humidity Pressure Rain* Wind** Luminosity Snow
1788004265 32.22° C 85% 1010.1 hPa - - - -
1788003366 32.22° C 84% 1010.2 hPa - - - -
1788001576 32.78° C 79% 1009.6 hPa - - - -
1787998864 33.33° C 80% 1009.3 hPa - - - -
1787997964 33.33° C 79% 1009.2 hPa - - - -
1787997066 33.89° C 80% 1009.1 hPa - - - -
1787996166 33.89° C 78% 1009 hPa - - - -
1787995266 33.89° C 77% 1009 hPa - - - -
1787994364 34.44° C 77% 1009.3 hPa - - - -
1787992566 34.44° C 74% 1009.6 hPa - - - -
1787991663 35° C 73% 1009.4 hPa - - - -
1787988063 35° C 71% 1009.3 hPa - - - -
1787981762 33.89° C 84% 1010.9 hPa - - - -
1787977265 33.89° C 88% 1012 hPa - - - -
1787963760 30° C 100% 1011.4 hPa - - - -
1787961960 30° C 100% 1011.1 hPa - - - -
1787960160 29.44° C 100% 1010.8 hPa - - - -
1787959260 29.44° C 99% 1010.7 hPa - - - -
1787956560 29.44° C 99% 1010.5 hPa - - - -
1787952059 30° C 98% 1009.9 hPa - - - -
1787951159 30° C 98% 1009.8 hPa - - - -
1787946659 30.56° C 96% 1009.8 hPa - - - -
1787917858 33.89° C 82% 1009.3 hPa - - - -
1787916955 34.44° C 82% 1009 hPa - - - -
1787908854 35.56° C 71% 1008.3 hPa - - - -

* Rain since midnight (hover to see other rain measurements)
** Current wind speed in m/s (hover to see current wind gust speed)